sensor_id;sensor_type;location;lat;lon;timestamp;P1;durP1;ratioP1;P2;durP2;ratioP2
44046;SDS011;29713;-33.888;151.150;2022-08-19T00:00:34;1.23;;;0.77;;
44046;SDS011;29713;-33.888;151.150;2022-08-19T00:03:03;2.63;;;0.97;;
44046;SDS011;29713;-33.888;151.150;2022-08-19T00:05:32;2.73;;;0.80;;
44046;SDS011;29713;-33.888;151.150;2022-08-19T00:08:00;2.80;;;0.80;;
44046;SDS011;29713;-33.888;151.150;2022-08-19T00:10:28;2.67;;;0.60;;
44046;SDS011;29713;-33.888;151.150;2022-08-19T00:12:56;1.70;;;0.77;;
44046;SDS011;29713;-33.888;151.150;2022-08-19T00:15:23;0.80;;;0.40;;
44046;SDS011;29713;-33.888;151.150;2022-08-19T00:17:50;2.73;;;0.67;;
44046;SDS011;29713;-33.888;151.150;2022-08-19T00:20:19;2.60;;;0.60;;
44046;SDS011;29713;-33.888;151.150;2022-08-19T00:22:47;1.80;;;1.00;;
44046;SDS011;29713;-33.888;151.150;2022-08-19T00:25:15;1.97;;;1.23;;
44046;SDS011;29713;-33.888;151.150;2022-08-19T00:27:42;4.30;;;1.70;;
44046;SDS011;29713;-33.888;151.150;2022-08-19T00:30:10;1.03;;;0.70;;
44046;SDS011;29713;-33.888;151.150;2022-08-19T00:32:38;0.80;;;0.63;;
44046;SDS011;29713;-33.888;151.150;2022-08-19T00:35:05;0.73;;;0.60;;
44046;SDS011;29713;-33.888;151.150;2022-08-19T00:37:34;0.73;;;0.60;;
44046;SDS011;29713;-33.888;151.150;2022-08-19T00:40:03;1.73;;;0.43;;
44046;SDS011;29713;-33.888;151.150;2022-08-19T00:42:31;2.47;;;0.80;;
44046;SDS011;29713;-33.888;151.150;2022-08-19T00:44:59;0.88;;;0.60;;
44046;SDS011;29713;-33.888;151.150;2022-08-19T00:47:26;1.07;;;0.70;;
44046;SDS011;29713;-33.888;151.150;2022-08-19T00:49:55;1.50;;;0.63;;
44046;SDS011;29713;-33.888;151.150;2022-08-19T00:52:26;1.73;;;0.60;;
44046;SDS011;29713;-33.888;151.150;2022-08-19T00:54:59;2.78;;;0.80;;
44046;SDS011;29713;-33.888;151.150;2022-08-19T00:57:35;3.22;;;0.80;;
44046;SDS011;29713;-33.888;151.150;2022-08-19T01:00:07;1.85;;;0.55;;
44046;SDS011;29713;-33.888;151.150;2022-08-19T01:02:38;1.30;;;0.70;;
44046;SDS011;29713;-33.888;151.150;2022-08-19T01:05:08;2.53;;;0.60;;
44046;SDS011;29713;-33.888;151.150;2022-08-19T01:07:40;0.77;;;0.50;;
44046;SDS011;29713;-33.888;151.150;2022-08-19T01:10:10;1.70;;;0.77;;
44046;SDS011;29713;-33.888;151.150;2022-08-19T01:12:40;1.52;;;0.55;;
44046;SDS011;29713;-33.888;151.150;2022-08-19T01:15:08;3.92;;;0.75;;
44046;SDS011;29713;-33.888;151.150;2022-08-19T01:17:38;2.05;;;0.30;;
44046;SDS011;29713;-33.888;151.150;2022-08-19T01:20:15;0.40;;;0.30;;
44046;SDS011;29713;-33.888;151.150;2022-08-19T01:22:52;1.77;;;0.40;;
44046;SDS011;29713;-33.888;151.150;2022-08-19T01:25:26;0.30;;;0.20;;
44046;SDS011;29713;-33.888;151.150;2022-08-19T01:27:57;2.25;;;0.50;;
44046;SDS011;29713;-33.888;151.150;2022-08-19T01:30:26;1.10;;;0.40;;
44046;SDS011;29713;-33.888;151.150;2022-08-19T01:32:55;1.05;;;0.50;;
44046;SDS011;29713;-33.888;151.150;2022-08-19T01:35:26;1.55;;;0.57;;
44046;SDS011;29713;-33.888;151.150;2022-08-19T01:38:00;0.90;;;0.55;;
44046;SDS011;29713;-33.888;151.150;2022-08-19T01:40:33;0.20;;;0.20;;
44046;SDS011;29713;-33.888;151.150;2022-08-19T01:43:04;0.57;;;0.40;;
44046;SDS011;29713;-33.888;151.150;2022-08-19T01:45:32;0.30;;;0.30;;
44046;SDS011;29713;-33.888;151.150;2022-08-19T01:48:03;1.35;;;0.40;;
44046;SDS011;29713;-33.888;151.150;2022-08-19T01:50:31;2.00;;;0.60;;
44046;SDS011;29713;-33.888;151.150;2022-08-19T01:53:00;0.43;;;0.30;;
44046;SDS011;29713;-33.888;151.150;2022-08-19T01:55:29;1.30;;;0.50;;
44046;SDS011;29713;-33.888;151.150;2022-08-19T01:57:58;2.15;;;0.50;;
44046;SDS011;29713;-33.888;151.150;2022-08-19T02:00:28;0.40;;;0.30;;
44046;SDS011;29713;-33.888;151.150;2022-08-19T02:02:57;0.40;;;0.30;;
44046;SDS011;29713;-33.888;151.150;2022-08-19T02:05:26;0.63;;;0.20;;
44046;SDS011;29713;-33.888;151.150;2022-08-19T02:07:55;0.43;;;0.20;;
44046;SDS011;29713;-33.888;151.150;2022-08-19T02:10:24;0.63;;;0.30;;
44046;SDS011;29713;-33.888;151.150;2022-08-19T02:12:56;1.92;;;0.40;;
44046;SDS011;29713;-33.888;151.150;2022-08-19T02:15:24;0.60;;;0.30;;
44046;SDS011;29713;-33.888;151.150;2022-08-19T02:17:51;1.17;;;0.50;;
44046;SDS011;29713;-33.888;151.150;2022-08-19T02:20:19;0.70;;;0.45;;
44046;SDS011;29713;-33.888;151.150;2022-08-19T02:22:47;1.15;;;0.50;;
44046;SDS011;29713;-33.888;151.150;2022-08-19T02:25:15;0.82;;;0.40;;
44046;SDS011;29713;-33.888;151.150;2022-08-19T02:27:42;0.40;;;0.30;;
44046;SDS011;29713;-33.888;151.150;2022-08-19T02:30:12;0.65;;;0.38;;
44046;SDS011;29713;-33.888;151.150;2022-08-19T02:32:44;1.42;;;0.63;;
44046;SDS011;29713;-33.888;151.150;2022-08-19T02:35:12;1.38;;;0.50;;
44046;SDS011;29713;-33.888;151.150;2022-08-19T02:37:41;3.53;;;0.47;;
44046;SDS011;29713;-33.888;151.150;2022-08-19T02:40:27;0.60;;;0.25;;
44046;SDS011;29713;-33.888;151.150;2022-08-19T02:42:55;1.25;;;0.50;;
44046;SDS011;29713;-33.888;151.150;2022-08-19T02:45:23;0.98;;;0.52;;
44046;SDS011;29713;-33.888;151.150;2022-08-19T02:47:50;0.52;;;0.40;;
44046;SDS011;29713;-33.888;151.150;2022-08-19T02:50:18;0.93;;;0.40;;
44046;SDS011;29713;-33.888;151.150;2022-08-19T02:52:45;1.05;;;0.30;;
44046;SDS011;29713;-33.888;151.150;2022-08-19T02:55:12;0.45;;;0.40;;
44046;SDS011;29713;-33.888;151.150;2022-08-19T02:57:40;0.65;;;0.20;;
44046;SDS011;29713;-33.888;151.150;2022-08-19T03:00:08;0.32;;;0.15;;
44046;SDS011;29713;-33.888;151.150;2022-08-19T03:02:39;1.27;;;0.30;;
44046;SDS011;29713;-33.888;151.150;2022-08-19T03:05:07;0.63;;;0.20;;
44046;SDS011;29713;-33.888;151.150;2022-08-19T03:07:35;0.73;;;0.20;;
44046;SDS011;29713;-33.888;151.150;2022-08-19T03:10:03;1.25;;;0.15;;
44046;SDS011;29713;-33.888;151.150;2022-08-19T03:12:34;0.00;;;0.00;;
44046;SDS011;29713;-33.888;151.150;2022-08-19T03:15:04;0.20;;;0.20;;
44046;SDS011;29713;-33.888;151.150;2022-08-19T03:17:34;0.57;;;0.10;;
44046;SDS011;29713;-33.888;151.150;2022-08-19T03:20:02;1.30;;;0.20;;
44046;SDS011;29713;-33.888;151.150;2022-08-19T03:22:30;0.00;;;0.00;;
44046;SDS011;29713;-33.888;151.150;2022-08-19T03:24:58;0.10;;;0.10;;
44046;SDS011;29713;-33.888;151.150;2022-08-19T03:27:25;0.30;;;0.20;;
44046;SDS011;29713;-33.888;151.150;2022-08-19T03:29:53;0.28;;;0.20;;
44046;SDS011;29713;-33.888;151.150;2022-08-19T03:32:20;0.38;;;0.20;;
44046;SDS011;29713;-33.888;151.150;2022-08-19T03:34:47;0.47;;;0.28;;
44046;SDS011;29713;-33.888;151.150;2022-08-19T03:37:16;0.40;;;0.17;;
44046;SDS011;29713;-33.888;151.150;2022-08-19T03:39:43;0.80;;;0.20;;
44046;SDS011;29713;-33.888;151.150;2022-08-19T03:42:11;0.20;;;0.20;;
44046;SDS011;29713;-33.888;151.150;2022-08-19T03:44:38;0.47;;;0.17;;
44046;SDS011;29713;-33.888;151.150;2022-08-19T03:47:07;0.22;;;0.22;;
44046;SDS011;29713;-33.888;151.150;2022-08-19T03:49:35;0.10;;;0.10;;
44046;SDS011;29713;-33.888;151.150;2022-08-19T03:52:02;0.47;;;0.10;;
44046;SDS011;29713;-33.888;151.150;2022-08-19T03:54:32;1.33;;;0.20;;
44046;SDS011;29713;-33.888;151.150;2022-08-19T03:57:00;0.20;;;0.13;;
44046;SDS011;29713;-33.888;151.150;2022-08-19T03:59:32;1.58;;;0.30;;
44046;SDS011;29713;-33.888;151.150;2022-08-19T04:02:01;0.20;;;0.20;;
44046;SDS011;29713;-33.888;151.150;2022-08-19T04:04:34;0.20;;;0.20;;
44046;SDS011;29713;-33.888;151.150;2022-08-19T04:07:06;0.30;;;0.10;;
44046;SDS011;29713;-33.888;151.150;2022-08-19T04:09:35;0.50;;;0.20;;
44046;SDS011;29713;-33.888;151.150;2022-08-19T04:12:03;0.80;;;0.30;;
44046;SDS011;29713;-33.888;151.150;2022-08-19T04:14:31;0.32;;;0.20;;
44046;SDS011;29713;-33.888;151.150;2022-08-19T04:16:59;2.03;;;0.65;;
44046;SDS011;29713;-33.888;151.150;2022-08-19T04:19:30;1.00;;;0.40;;
44046;SDS011;29713;-33.888;151.150;2022-08-19T04:21:58;0.47;;;0.20;;
44046;SDS011;29713;-33.888;151.150;2022-08-19T04:24:25;1.88;;;0.40;;
44046;SDS011;29713;-33.888;151.150;2022-08-19T04:26:53;0.60;;;0.40;;
44046;SDS011;29713;-33.888;151.150;2022-08-19T04:29:22;1.08;;;0.38;;
44046;SDS011;29713;-33.888;151.150;2022-08-19T04:31:53;1.30;;;0.28;;
44046;SDS011;29713;-33.888;151.150;2022-08-19T04:34:22;0.20;;;0.20;;
44046;SDS011;29713;-33.888;151.150;2022-08-19T04:36:52;0.30;;;0.20;;
44046;SDS011;29713;-33.888;151.150;2022-08-19T04:39:22;1.67;;;0.30;;
44046;SDS011;29713;-33.888;151.150;2022-08-19T04:42:09;0.40;;;0.20;;
44046;SDS011;29713;-33.888;151.150;2022-08-19T04:44:55;0.90;;;0.20;;
44046;SDS011;29713;-33.888;151.150;2022-08-19T04:47:24;0.13;;;0.13;;
44046;SDS011;29713;-33.888;151.150;2022-08-19T04:49:51;1.20;;;0.40;;
44046;SDS011;29713;-33.888;151.150;2022-08-19T04:52:18;0.77;;;0.30;;
44046;SDS011;29713;-33.888;151.150;2022-08-19T04:54:46;0.20;;;0.20;;
44046;SDS011;29713;-33.888;151.150;2022-08-19T04:57:13;0.30;;;0.30;;
44046;SDS011;29713;-33.888;151.150;2022-08-19T04:59:40;1.30;;;0.40;;
44046;SDS011;29713;-33.888;151.150;2022-08-19T05:02:08;0.32;;;0.30;;
44046;SDS011;29713;-33.888;151.150;2022-08-19T05:04:36;2.03;;;0.20;;
44046;SDS011;29713;-33.888;151.150;2022-08-19T05:07:05;0.75;;;0.32;;
44046;SDS011;29713;-33.888;151.150;2022-08-19T05:09:35;1.20;;;0.30;;
44046;SDS011;29713;-33.888;151.150;2022-08-19T05:12:03;0.75;;;0.20;;
44046;SDS011;29713;-33.888;151.150;2022-08-19T05:14:31;0.68;;;0.10;;
44046;SDS011;29713;-33.888;151.150;2022-08-19T05:17:00;0.20;;;0.20;;
44046;SDS011;29713;-33.888;151.150;2022-08-19T05:19:28;0.30;;;0.20;;
44046;SDS011;29713;-33.888;151.150;2022-08-19T05:22:13;0.40;;;0.20;;
44046;SDS011;29713;-33.888;151.150;2022-08-19T05:25:10;0.32;;;0.20;;
44046;SDS011;29713;-33.888;151.150;2022-08-19T05:27:40;1.23;;;0.30;;
44046;SDS011;29713;-33.888;151.150;2022-08-19T05:30:08;0.20;;;0.20;;
44046;SDS011;29713;-33.888;151.150;2022-08-19T05:32:37;3.50;;;0.40;;
44046;SDS011;29713;-33.888;151.150;2022-08-19T05:35:05;1.33;;;0.30;;
44046;SDS011;29713;-33.888;151.150;2022-08-19T05:37:33;1.52;;;0.55;;
44046;SDS011;29713;-33.888;151.150;2022-08-19T05:40:00;0.80;;;0.50;;
44046;SDS011;29713;-33.888;151.150;2022-08-19T05:42:28;0.57;;;0.30;;
44046;SDS011;29713;-33.888;151.150;2022-08-19T05:44:56;1.05;;;0.30;;
44046;SDS011;29713;-33.888;151.150;2022-08-19T05:47:23;0.93;;;0.30;;
44046;SDS011;29713;-33.888;151.150;2022-08-19T05:49:50;0.52;;;0.20;;
44046;SDS011;29713;-33.888;151.150;2022-08-19T05:52:18;0.20;;;0.20;;
44046;SDS011;29713;-33.888;151.150;2022-08-19T05:54:46;0.50;;;0.30;;
44046;SDS011;29713;-33.888;151.150;2022-08-19T05:57:14;1.85;;;0.17;;
44046;SDS011;29713;-33.888;151.150;2022-08-19T05:59:41;1.48;;;0.40;;
44046;SDS011;29713;-33.888;151.150;2022-08-19T06:02:11;0.32;;;0.10;;
44046;SDS011;29713;-33.888;151.150;2022-08-19T06:04:39;0.32;;;0.10;;
44046;SDS011;29713;-33.888;151.150;2022-08-19T06:07:09;0.35;;;0.10;;
44046;SDS011;29713;-33.888;151.150;2022-08-19T06:09:37;0.30;;;0.20;;
44046;SDS011;29713;-33.888;151.150;2022-08-19T06:12:04;0.45;;;0.20;;
44046;SDS011;29713;-33.888;151.150;2022-08-19T06:14:33;0.85;;;0.13;;
44046;SDS011;29713;-33.888;151.150;2022-08-19T06:17:01;1.15;;;0.20;;
44046;SDS011;29713;-33.888;151.150;2022-08-19T06:19:29;0.20;;;0.20;;
44046;SDS011;29713;-33.888;151.150;2022-08-19T06:21:57;0.20;;;0.10;;
44046;SDS011;29713;-33.888;151.150;2022-08-19T06:24:26;0.10;;;0.10;;
44046;SDS011;29713;-33.888;151.150;2022-08-19T06:26:55;0.43;;;0.20;;
44046;SDS011;29713;-33.888;151.150;2022-08-19T06:29:25;0.10;;;0.10;;
44046;SDS011;29713;-33.888;151.150;2022-08-19T06:31:54;4.20;;;0.57;;
44046;SDS011;29713;-33.888;151.150;2022-08-19T06:34:22;2.95;;;0.22;;
44046;SDS011;29713;-33.888;151.150;2022-08-19T06:36:52;1.05;;;0.20;;
44046;SDS011;29713;-33.888;151.150;2022-08-19T06:39:22;0.95;;;0.20;;
44046;SDS011;29713;-33.888;151.150;2022-08-19T06:41:53;2.28;;;0.17;;
44046;SDS011;29713;-33.888;151.150;2022-08-19T06:44:23;1.33;;;0.30;;
44046;SDS011;29713;-33.888;151.150;2022-08-19T06:46:53;2.85;;;1.13;;
44046;SDS011;29713;-33.888;151.150;2022-08-19T06:49:22;5.13;;;1.50;;
44046;SDS011;29713;-33.888;151.150;2022-08-19T06:51:50;5.57;;;1.42;;
44046;SDS011;29713;-33.888;151.150;2022-08-19T06:54:18;5.85;;;1.20;;
44046;SDS011;29713;-33.888;151.150;2022-08-19T06:56:46;5.57;;;1.25;;
44046;SDS011;29713;-33.888;151.150;2022-08-19T06:59:18;6.93;;;1.23;;
44046;SDS011;29713;-33.888;151.150;2022-08-19T07:01:47;4.88;;;1.00;;
44046;SDS011;29713;-33.888;151.150;2022-08-19T07:04:18;4.35;;;0.98;;
44046;SDS011;29713;-33.888;151.150;2022-08-19T07:06:47;3.85;;;1.15;;
44046;SDS011;29713;-33.888;151.150;2022-08-19T07:09:16;5.97;;;1.40;;
44046;SDS011;29713;-33.888;151.150;2022-08-19T07:11:48;5.97;;;1.25;;
44046;SDS011;29713;-33.888;151.150;2022-08-19T07:14:18;3.77;;;1.40;;
44046;SDS011;29713;-33.888;151.150;2022-08-19T07:16:51;6.13;;;1.25;;
44046;SDS011;29713;-33.888;151.150;2022-08-19T07:19:20;3.73;;;1.30;;
44046;SDS011;29713;-33.888;151.150;2022-08-19T07:21:49;4.70;;;1.13;;
44046;SDS011;29713;-33.888;151.150;2022-08-19T07:24:18;5.17;;;1.27;;
44046;SDS011;29713;-33.888;151.150;2022-08-19T07:26:49;6.37;;;1.10;;
44046;SDS011;29713;-33.888;151.150;2022-08-19T07:29:18;3.97;;;0.70;;
44046;SDS011;29713;-33.888;151.150;2022-08-19T07:31:51;3.23;;;0.80;;
44046;SDS011;29713;-33.888;151.150;2022-08-19T07:34:22;1.37;;;0.60;;
44046;SDS011;29713;-33.888;151.150;2022-08-19T07:36:51;3.73;;;0.90;;
44046;SDS011;29713;-33.888;151.150;2022-08-19T07:39:21;1.97;;;0.97;;
44046;SDS011;29713;-33.888;151.150;2022-08-19T07:41:50;1.33;;;0.77;;
44046;SDS011;29713;-33.888;151.150;2022-08-19T07:44:19;1.00;;;0.60;;
44046;SDS011;29713;-33.888;151.150;2022-08-19T07:46:47;2.57;;;0.60;;
44046;SDS011;29713;-33.888;151.150;2022-08-19T07:49:18;1.20;;;0.40;;
44046;SDS011;29713;-33.888;151.150;2022-08-19T07:51:48;1.90;;;0.50;;
44046;SDS011;29713;-33.888;151.150;2022-08-19T07:54:19;0.73;;;0.60;;
44046;SDS011;29713;-33.888;151.150;2022-08-19T07:56:47;1.87;;;0.70;;
44046;SDS011;29713;-33.888;151.150;2022-08-19T07:59:16;0.57;;;0.40;;
44046;SDS011;29713;-33.888;151.150;2022-08-19T08:01:45;0.93;;;0.50;;
44046;SDS011;29713;-33.888;151.150;2022-08-19T08:04:12;1.03;;;0.47;;
44046;SDS011;29713;-33.888;151.150;2022-08-19T08:06:58;1.83;;;0.60;;
44046;SDS011;29713;-33.888;151.150;2022-08-19T08:09:43;2.30;;;0.50;;
44046;SDS011;29713;-33.888;151.150;2022-08-19T08:12:16;1.37;;;0.67;;
44046;SDS011;29713;-33.888;151.150;2022-08-19T08:14:55;0.60;;;0.47;;
44046;SDS011;29713;-33.888;151.150;2022-08-19T08:17:28;0.30;;;0.30;;
44046;SDS011;29713;-33.888;151.150;2022-08-19T08:19:57;1.13;;;0.80;;
44046;SDS011;29713;-33.888;151.150;2022-08-19T08:22:25;2.07;;;1.00;;
44046;SDS011;29713;-33.888;151.150;2022-08-19T08:25:14;0.60;;;0.50;;
44046;SDS011;29713;-33.888;151.150;2022-08-19T08:27:44;2.30;;;0.80;;
44046;SDS011;29713;-33.888;151.150;2022-08-19T08:30:14;0.90;;;0.70;;
44046;SDS011;29713;-33.888;151.150;2022-08-19T08:32:43;1.53;;;0.83;;
44046;SDS011;29713;-33.888;151.150;2022-08-19T08:35:12;1.27;;;0.50;;
44046;SDS011;29713;-33.888;151.150;2022-08-19T08:37:42;1.27;;;0.60;;
44046;SDS011;29713;-33.888;151.150;2022-08-19T08:40:21;1.20;;;0.60;;
44046;SDS011;29713;-33.888;151.150;2022-08-19T08:42:59;1.03;;;0.67;;
44046;SDS011;29713;-33.888;151.150;2022-08-19T08:45:35;1.73;;;0.70;;
44046;SDS011;29713;-33.888;151.150;2022-08-19T08:48:17;3.20;;;0.90;;
44046;SDS011;29713;-33.888;151.150;2022-08-19T08:50:56;2.20;;;0.80;;
44046;SDS011;29713;-33.888;151.150;2022-08-19T08:53:30;1.60;;;1.00;;
44046;SDS011;29713;-33.888;151.150;2022-08-19T08:56:01;1.67;;;1.00;;
44046;SDS011;29713;-33.888;151.150;2022-08-19T08:58:41;2.87;;;1.27;;
44046;SDS011;29713;-33.888;151.150;2022-08-19T09:01:26;3.63;;;1.37;;
44046;SDS011;29713;-33.888;151.150;2022-08-19T09:03:53;2.90;;;0.90;;
44046;SDS011;29713;-33.888;151.150;2022-08-19T09:09:39;2.30;;;1.40;;
44046;SDS011;29713;-33.888;151.150;2022-08-19T09:15:09;3.93;;;1.30;;
44046;SDS011;29713;-33.888;151.150;2022-08-19T09:17:39;3.57;;;1.40;;
44046;SDS011;29713;-33.888;151.150;2022-08-19T09:22:57;2.27;;;1.23;;
44046;SDS011;29713;-33.888;151.150;2022-08-19T09:25:25;5.47;;;1.50;;
44046;SDS011;29713;-33.888;151.150;2022-08-19T09:27:52;2.70;;;1.10;;
44046;SDS011;29713;-33.888;151.150;2022-08-19T09:30:23;3.10;;;1.03;;
44046;SDS011;29713;-33.888;151.150;2022-08-19T09:32:54;1.50;;;0.77;;
44046;SDS011;29713;-33.888;151.150;2022-08-19T09:35:22;3.73;;;0.77;;
44046;SDS011;29713;-33.888;151.150;2022-08-19T09:37:52;2.10;;;0.80;;
44046;SDS011;29713;-33.888;151.150;2022-08-19T09:40:19;1.43;;;0.73;;
44046;SDS011;29713;-33.888;151.150;2022-08-19T09:42:47;1.33;;;0.90;;
44046;SDS011;29713;-33.888;151.150;2022-08-19T09:45:14;1.57;;;1.00;;
44046;SDS011;29713;-33.888;151.150;2022-08-19T09:47:43;2.87;;;1.23;;
44046;SDS011;29713;-33.888;151.150;2022-08-19T09:50:11;1.60;;;0.97;;
44046;SDS011;29713;-33.888;151.150;2022-08-19T09:52:39;2.67;;;0.93;;
44046;SDS011;29713;-33.888;151.150;2022-08-19T09:55:09;1.83;;;1.17;;
44046;SDS011;29713;-33.888;151.150;2022-08-19T09:57:37;2.27;;;1.00;;
44046;SDS011;29713;-33.888;151.150;2022-08-19T10:00:05;3.87;;;1.30;;
44046;SDS011;29713;-33.888;151.150;2022-08-19T10:02:34;2.07;;;1.20;;
44046;SDS011;29713;-33.888;151.150;2022-08-19T10:05:02;2.00;;;1.30;;
44046;SDS011;29713;-33.888;151.150;2022-08-19T10:07:47;2.13;;;1.40;;
44046;SDS011;29713;-33.888;151.150;2022-08-19T10:10:15;2.70;;;1.50;;
44046;SDS011;29713;-33.888;151.150;2022-08-19T10:12:43;2.03;;;1.40;;
44046;SDS011;29713;-33.888;151.150;2022-08-19T10:15:12;2.77;;;1.40;;
44046;SDS011;29713;-33.888;151.150;2022-08-19T10:17:40;2.93;;;1.67;;
44046;SDS011;29713;-33.888;151.150;2022-08-19T10:20:08;3.73;;;1.73;;
44046;SDS011;29713;-33.888;151.150;2022-08-19T10:22:36;3.70;;;2.07;;
44046;SDS011;29713;-33.888;151.150;2022-08-19T10:25:04;3.33;;;1.90;;
44046;SDS011;29713;-33.888;151.150;2022-08-19T10:27:32;2.97;;;2.00;;
44046;SDS011;29713;-33.888;151.150;2022-08-19T10:30:02;2.67;;;1.97;;
44046;SDS011;29713;-33.888;151.150;2022-08-19T10:32:30;3.10;;;1.80;;
44046;SDS011;29713;-33.888;151.150;2022-08-19T10:34:58;2.83;;;1.40;;
44046;SDS011;29713;-33.888;151.150;2022-08-19T10:37:26;2.20;;;1.67;;
44046;SDS011;29713;-33.888;151.150;2022-08-19T10:39:53;6.70;;;1.90;;
44046;SDS011;29713;-33.888;151.150;2022-08-19T10:42:21;3.97;;;2.10;;
44046;SDS011;29713;-33.888;151.150;2022-08-19T10:44:48;3.93;;;1.73;;
44046;SDS011;29713;-33.888;151.150;2022-08-19T10:47:15;3.07;;;2.17;;
44046;SDS011;29713;-33.888;151.150;2022-08-19T10:49:43;5.03;;;2.50;;
44046;SDS011;29713;-33.888;151.150;2022-08-19T10:52:28;3.07;;;2.20;;
44046;SDS011;29713;-33.888;151.150;2022-08-19T10:55:06;3.20;;;2.20;;
44046;SDS011;29713;-33.888;151.150;2022-08-19T10:57:51;3.37;;;2.03;;
44046;SDS011;29713;-33.888;151.150;2022-08-19T11:00:20;3.30;;;2.00;;
44046;SDS011;29713;-33.888;151.150;2022-08-19T11:02:48;3.63;;;1.80;;
44046;SDS011;29713;-33.888;151.150;2022-08-19T11:05:16;4.50;;;2.17;;
44046;SDS011;29713;-33.888;151.150;2022-08-19T11:07:44;3.20;;;1.83;;
44046;SDS011;29713;-33.888;151.150;2022-08-19T11:10:13;2.00;;;1.47;;
44046;SDS011;29713;-33.888;151.150;2022-08-19T11:12:44;1.50;;;1.30;;
44046;SDS011;29713;-33.888;151.150;2022-08-19T11:15:12;2.33;;;1.50;;
44046;SDS011;29713;-33.888;151.150;2022-08-19T11:17:40;3.10;;;1.37;;
44046;SDS011;29713;-33.888;151.150;2022-08-19T11:20:10;1.97;;;1.20;;
44046;SDS011;29713;-33.888;151.150;2022-08-19T11:22:39;1.43;;;1.20;;
44046;SDS011;29713;-33.888;151.150;2022-08-19T11:25:09;2.30;;;1.20;;
44046;SDS011;29713;-33.888;151.150;2022-08-19T11:27:38;1.97;;;1.13;;
44046;SDS011;29713;-33.888;151.150;2022-08-19T11:30:10;3.20;;;1.40;;
44046;SDS011;29713;-33.888;151.150;2022-08-19T11:32:42;2.10;;;0.90;;
44046;SDS011;29713;-33.888;151.150;2022-08-19T11:35:09;2.37;;;1.20;;
44046;SDS011;29713;-33.888;151.150;2022-08-19T11:37:37;1.87;;;1.20;;
44046;SDS011;29713;-33.888;151.150;2022-08-19T11:40:05;2.30;;;1.00;;
44046;SDS011;29713;-33.888;151.150;2022-08-19T11:42:33;2.67;;;0.87;;
44046;SDS011;29713;-33.888;151.150;2022-08-19T11:45:18;2.03;;;1.00;;
44046;SDS011;29713;-33.888;151.150;2022-08-19T11:47:45;3.33;;;1.20;;
44046;SDS011;29713;-33.888;151.150;2022-08-19T11:50:14;1.63;;;1.23;;
44046;SDS011;29713;-33.888;151.150;2022-08-19T11:52:41;3.53;;;1.30;;
44046;SDS011;29713;-33.888;151.150;2022-08-19T11:55:11;1.73;;;1.10;;
44046;SDS011;29713;-33.888;151.150;2022-08-19T11:57:39;2.10;;;1.20;;
44046;SDS011;29713;-33.888;151.150;2022-08-19T12:00:09;1.97;;;1.00;;
44046;SDS011;29713;-33.888;151.150;2022-08-19T12:02:38;1.50;;;1.10;;
44046;SDS011;29713;-33.888;151.150;2022-08-19T12:05:06;1.43;;;0.90;;
44046;SDS011;29713;-33.888;151.150;2022-08-19T12:07:34;2.77;;;1.10;;
44046;SDS011;29713;-33.888;151.150;2022-08-19T12:10:01;2.30;;;1.37;;
44046;SDS011;29713;-33.888;151.150;2022-08-19T12:12:29;2.27;;;1.40;;
44046;SDS011;29713;-33.888;151.150;2022-08-19T12:14:56;4.53;;;1.70;;
44046;SDS011;29713;-33.888;151.150;2022-08-19T12:17:24;3.37;;;1.30;;
44046;SDS011;29713;-33.888;151.150;2022-08-19T12:19:53;2.57;;;1.70;;
44046;SDS011;29713;-33.888;151.150;2022-08-19T12:22:20;4.47;;;1.73;;
44046;SDS011;29713;-33.888;151.150;2022-08-19T12:24:48;2.77;;;1.70;;
44046;SDS011;29713;-33.888;151.150;2022-08-19T12:27:18;2.87;;;1.90;;
44046;SDS011;29713;-33.888;151.150;2022-08-19T12:29:45;4.80;;;2.27;;
44046;SDS011;29713;-33.888;151.150;2022-08-19T12:32:12;5.60;;;2.40;;
44046;SDS011;29713;-33.888;151.150;2022-08-19T12:34:40;4.40;;;2.50;;
44046;SDS011;29713;-33.888;151.150;2022-08-19T12:37:08;3.63;;;2.30;;
44046;SDS011;29713;-33.888;151.150;2022-08-19T12:39:37;3.33;;;2.73;;
44046;SDS011;29713;-33.888;151.150;2022-08-19T12:42:08;4.00;;;3.03;;
44046;SDS011;29713;-33.888;151.150;2022-08-19T12:44:36;5.33;;;2.80;;
44046;SDS011;29713;-33.888;151.150;2022-08-19T12:47:05;6.13;;;2.83;;
44046;SDS011;29713;-33.888;151.150;2022-08-19T12:49:34;4.90;;;3.17;;
44046;SDS011;29713;-33.888;151.150;2022-08-19T12:52:03;4.00;;;2.70;;
44046;SDS011;29713;-33.888;151.150;2022-08-19T12:54:31;3.03;;;2.37;;
44046;SDS011;29713;-33.888;151.150;2022-08-19T12:56:59;5.27;;;2.93;;
44046;SDS011;29713;-33.888;151.150;2022-08-19T12:59:26;4.27;;;2.50;;
44046;SDS011;29713;-33.888;151.150;2022-08-19T13:01:54;4.23;;;2.57;;
44046;SDS011;29713;-33.888;151.150;2022-08-19T13:04:21;3.83;;;2.37;;
44046;SDS011;29713;-33.888;151.150;2022-08-19T13:06:48;3.27;;;2.10;;
44046;SDS011;29713;-33.888;151.150;2022-08-19T13:09:16;2.77;;;1.77;;
44046;SDS011;29713;-33.888;151.150;2022-08-19T13:11:43;2.07;;;1.60;;
44046;SDS011;29713;-33.888;151.150;2022-08-19T13:14:10;3.00;;;1.80;;
44046;SDS011;29713;-33.888;151.150;2022-08-19T13:16:38;2.50;;;1.40;;
44046;SDS011;29713;-33.888;151.150;2022-08-19T13:19:06;4.03;;;1.50;;
44046;SDS011;29713;-33.888;151.150;2022-08-19T13:21:34;3.93;;;1.20;;
44046;SDS011;29713;-33.888;151.150;2022-08-19T13:24:01;2.27;;;1.37;;
44046;SDS011;29713;-33.888;151.150;2022-08-19T13:26:29;2.60;;;1.20;;
44046;SDS011;29713;-33.888;151.150;2022-08-19T13:28:56;3.93;;;1.57;;
44046;SDS011;29713;-33.888;151.150;2022-08-19T13:31:41;2.13;;;1.20;;
44046;SDS011;29713;-33.888;151.150;2022-08-19T13:34:30;4.63;;;1.70;;
44046;SDS011;29713;-33.888;151.150;2022-08-19T13:37:00;2.90;;;1.40;;
44046;SDS011;29713;-33.888;151.150;2022-08-19T13:39:29;2.17;;;1.60;;
44046;SDS011;29713;-33.888;151.150;2022-08-19T13:41:58;2.30;;;1.10;;
44046;SDS011;29713;-33.888;151.150;2022-08-19T13:44:27;2.23;;;1.30;;
44046;SDS011;29713;-33.888;151.150;2022-08-19T13:46:55;2.53;;;1.40;;
44046;SDS011;29713;-33.888;151.150;2022-08-19T13:49:31;3.23;;;1.30;;
44046;SDS011;29713;-33.888;151.150;2022-08-19T13:51:59;2.90;;;1.30;;
44046;SDS011;29713;-33.888;151.150;2022-08-19T13:54:26;3.30;;;1.50;;
44046;SDS011;29713;-33.888;151.150;2022-08-19T13:56:53;3.37;;;1.20;;
44046;SDS011;29713;-33.888;151.150;2022-08-19T13:59:21;2.90;;;1.13;;
44046;SDS011;29713;-33.888;151.150;2022-08-19T14:01:48;3.20;;;1.10;;
44046;SDS011;29713;-33.888;151.150;2022-08-19T14:04:15;2.63;;;1.20;;
44046;SDS011;29713;-33.888;151.150;2022-08-19T14:06:43;3.43;;;1.33;;
44046;SDS011;29713;-33.888;151.150;2022-08-19T14:09:10;4.20;;;1.13;;
44046;SDS011;29713;-33.888;151.150;2022-08-19T14:11:37;1.93;;;1.20;;
44046;SDS011;29713;-33.888;151.150;2022-08-19T14:14:05;5.80;;;1.53;;
44046;SDS011;29713;-33.888;151.150;2022-08-19T14:16:32;2.53;;;1.40;;
44046;SDS011;29713;-33.888;151.150;2022-08-19T14:18:59;4.63;;;1.30;;
44046;SDS011;29713;-33.888;151.150;2022-08-19T14:21:27;2.80;;;1.20;;
44046;SDS011;29713;-33.888;151.150;2022-08-19T14:23:54;4.17;;;1.60;;
44046;SDS011;29713;-33.888;151.150;2022-08-19T14:26:21;4.13;;;1.60;;
44046;SDS011;29713;-33.888;151.150;2022-08-19T14:28:49;6.03;;;1.50;;
44046;SDS011;29713;-33.888;151.150;2022-08-19T14:31:17;2.40;;;1.20;;